»·PEaware :: DAL213 KPSP-KLAS

DAL213 :: KPSP-KLAS

FLIGHT INFORMATION

Flight Status: Arrived
Operator:
Delta Air Lines
More flights by this operator :: More flights under this callsign
Pilot: Nico L. (9332)
Aircraft: BOEING 737-800
(B738)
More flights by this aircraft type
Origin: KPSP Palm Springs Intl
United States
Destination: KLAS McCarran Intl
United States
More flights between these airports :: More routes between these airports
Route: +CLARR KEPEC6
File this flight plan on PilotEdge
Remarks: Live Streaming on Twitch "DAL213" and YT
Altitude:
(Current/Filed)
17,000ft
Speed:
(Current/Filed)
400kts
Departed: 01-May-19 06:58 PM
Arrived: 01-May-19 07:43 PM
Distance/Time
Traveled:
151nm/0:45
Distance/Time
To Go:
Arrived

Flight Plot

Page will automatically refresh every two minutes.

Flight plan parsing failed; only flown route is shown


Map Options




Map Legend


Flown Route
Filed Route
Departure Airport
Arrival Airport
Navaid (VOR, NDB)
Fix

Horizontal Profiles

Position Reports

Time Latitude Longitude Heading Altitude Ground
Speed
01-May-19 18:36 33.823418 -116.505900 245 486ft 0kts
01-May-19 18:37 33.823418 -116.505900 245 486ft 0kts
01-May-19 18:38 33.823418 -116.505900 245 486ft 0kts
01-May-19 18:39 33.823418 -116.505900 245 486ft 0kts
01-May-19 18:40 33.823418 -116.505900 245 486ft 0kts
01-May-19 18:41 33.823418 -116.505900 245 486ft 0kts
01-May-19 18:42 33.823418 -116.505900 245 486ft 0kts
01-May-19 18:43 33.823418 -116.505900 245 486ft 0kts
01-May-19 18:44 33.823418 -116.505900 245 486ft 0kts
01-May-19 18:45 33.823418 -116.505900 245 486ft 0kts
01-May-19 18:46 33.823418 -116.505900 245 486ft 0kts
01-May-19 18:47 33.823418 -116.505900 245 486ft 0kts
01-May-19 18:48 33.823418 -116.505900 245 486ft 0kts
01-May-19 18:49 33.823704 -116.505459 213 486ft 2kts
01-May-19 18:49 33.824047 -116.505311 186 486ft 0kts
01-May-19 18:51 33.824047 -116.505311 186 486ft 0kts
01-May-19 18:52 33.824047 -116.505311 186 486ft 0kts
01-May-19 18:52 33.824047 -116.505311 186 486ft 0kts
01-May-19 18:54 33.823546 -116.505152 141 486ft 16kts
01-May-19 18:54 33.820748 -116.501735 142 486ft 24kts
01-May-19 18:55 33.818452 -116.499075 76 486ft 0kts
01-May-19 18:56 33.818455 -116.499060 76 486ft 2kts
01-May-19 18:57 33.823552 -116.502233 324 486ft 103kts
01-May-19 18:59 33.868984 -116.542245 322 2762ft 214kts
01-May-19 18:59 33.916574 -116.574582 1 4985ft 263kts
01-May-19 19:00 33.952402 -116.508845 108 8490ft 286kts
01-May-19 19:01 33.889674 -116.445002 148 10989ft 328kts
01-May-19 19:02 33.834032 -116.347647 117 12924ft 383kts
01-May-19 19:03 33.785744 -116.234413 124 13639ft 382kts
01-May-19 19:04 33.692466 -116.198841 205 16421ft 376kts
01-May-19 19:05 33.644251 -116.300920 279 16958ft 380kts
01-May-19 19:06 33.719659 -116.381255 341 16986ft 393kts
01-May-19 19:07 33.826094 -116.408481 3 16986ft 400kts
01-May-19 19:08 33.908488 -116.321879 61 17001ft 418kts
01-May-19 19:09 33.957036 -116.193726 63 17015ft 420kts
01-May-19 19:10 34.004439 -116.065267 64 17033ft 420kts
01-May-19 19:11 34.051583 -115.936434 64 17048ft 421kts
01-May-19 19:12 34.098794 -115.807016 63 17040ft 421kts
01-May-19 19:13 34.173890 -115.701924 40 17062ft 414kts
01-May-19 19:14 34.257795 -115.606595 40 17047ft 414kts
01-May-19 19:15 34.348239 -115.522291 19 17064ft 407kts
01-May-19 19:16 34.453941 -115.474341 16 17045ft 406kts
01-May-19 19:17 34.560711 -115.429198 7 17025ft 405kts
01-May-19 19:18 34.668940 -115.444485 345 17018ft 392kts
01-May-19 19:19 34.775948 -115.469236 345 17019ft 391kts
01-May-19 19:20 34.882620 -115.493934 345 17041ft 390kts
01-May-19 19:21 34.989734 -115.518802 345 17030ft 390kts
01-May-19 19:22 35.096217 -115.543621 345 17025ft 389kts
01-May-19 19:23 35.202419 -115.568423 344 17060ft 389kts
01-May-19 19:24 35.308805 -115.593333 344 17053ft 388kts
01-May-19 19:25 35.409982 -115.617082 344 16250ft 349kts
01-May-19 19:26 35.499776 -115.638198 344 15304ft 310kts
01-May-19 19:27 35.582041 -115.657616 344 14347ft 296kts
01-May-19 19:28 35.662232 -115.676487 345 13331ft 291kts
01-May-19 19:29 35.730435 -115.639826 68 12432ft 312kts
01-May-19 19:30 35.752483 -115.536504 73 11453ft 310kts
01-May-19 19:31 35.773683 -115.435401 73 10448ft 300kts
01-May-19 19:32 35.794543 -115.337288 73 9438ft 292kts
01-May-19 19:33 35.815344 -115.242065 64 7941ft 282kts
01-May-19 19:34 35.882233 -115.216653 356 6857ft 274kts
01-May-19 19:35 35.954566 -115.197319 18 5529ft 259kts
01-May-19 19:36 36.017154 -115.167145 32 4644ft 209kts
01-May-19 19:37 36.043598 -115.117971 44 3630ft 154kts
01-May-19 19:38 36.080307 -115.094130 19 2761ft 148kts
01-May-19 19:39 36.117780 -115.098316 311 2478ft 146kts
01-May-19 19:40 36.119993 -115.142826 199 2530ft 159kts
01-May-19 19:41 36.085693 -115.160955 203 2190ft 58kts
01-May-19 19:42 36.083217 -115.161235 174 2190ft 0kts
01-May-19 19:43 36.082723 -115.160627 71 2190ft 13kts
01-May-19 19:44 36.086098 -115.158516 26 2190ft 13kts
01-May-19 19:45 36.085454 -115.156130 42 2190ft 5kts
01-May-19 19:46 36.085427 -115.155000 106 2190ft 0kts
01-May-19 19:47 36.085427 -115.155000 106 2190ft 0kts
01-May-19 19:48 36.085427 -115.155000 106 2190ft 0kts
01-May-19 19:49 36.085427 -115.155000 106 2190ft 0kts
01-May-19 19:50 36.085427 -115.155000 106 2190ft 0kts
01-May-19 19:51 36.085427 -115.155000 106 2190ft 0kts
01-May-19 19:52 36.085427 -115.155000 106 2190ft 0kts
01-May-19 19:53 36.085427 -115.155000 106 2190ft 0kts
01-May-19 19:54 36.085427 -115.155000 106 2190ft 0kts
01-May-19 19:55 36.085427 -115.155000 106 2190ft 0kts
01-May-19 19:56 36.085427 -115.155000 106 2190ft 0kts
01-May-19 19:57 36.085427 -115.155000 106 2190ft 0kts

Navigation Log

Ident Type
Flight plan parsing failed, navigation log unavailable